富山空港

2020/01/16

令和2年高岡市消防艇出初式 高岡市 2020/1/16 thu

令和2年の出初式の最後は、高岡市消防艇出初式。伏木富山港国分3号岸壁が開放されて、開催されます。

RJNT 152300Z 18004KT 9999 VCSH FEW025 SCT070 02/M01 Q1024

20200116_0ikf_00moon

朝は青空。お月さまが見下ろしています。

20200116_0ikf_01ja84an

まずは、いつもの定点で

20200116_0ikf_02ja84an

ANA313 RJTT-RJNT JA84AN B737-881

20200116_0ikf_03pl04

道中、お船初詣 PL04「やひこ」

20200116_0ikf_04ps203

PS203「のりくら」

20200116_1kokubu_05cl68

国分に到着すると CL68「たちかぜ」さんが出港していきました。

20200116_1kokubu_06yamato

只今準備中

20200116_1kokubu_07yamato

ドローンも試験飛行

20200116_1kokubu_08fdp

隣りの油槽所に伏木消防署の消防車

20200116_1kokubu_09fdp

要救助者の仕込み中

20200116_1kokubu_10fdp

岸壁では式典の進行確認

20200116_1kokubu_11cl68

「たちかぜ」が戻って

20200116_1kokubu_12cl68

「やひこ」の潜水士さんが乗船

20200116_1kokubu_13fdp

11時 高岡市消防本部音楽隊の演奏から式典が始まりました。

20200116_1kokubu_14yamato

消防艇「やまと」に乗り込み出航

20200116_1kokubu_15yamato

「やまと」と「たちかぜ」は、登舷礼

20200116_1kokubu_16yamato

高岡市消防本部伏木消防署消防艇「やまと」

20200116_1kokubu_17cl68

20200116_1kokubu_18cl68

20200116_1kokubu_19cl68

伏木海上保安部巡視艇CL68「たちかぜ」

20200116_1kokubu_20fdp

セーリング中のヨットが転覆して乗員2名が転落。水面の要救助者は救助員が飛び込んで救出。

20200116_1kokubu_21ja6768

防災ヘリコプターが上空で安全監視

20200116_1kokubu_22fdp

水難救助員がアンカー

20200116_1kokubu_23yamato

「やまと」と「たちかぜ」から潜水士投入

20200116_1kokubu_24cl68

ドッボーン

20200116_1kokubu_25fdp

捜索

20200116_1kokubu_26fdp

要救助者が発見され救助工作車のクレーンで吊り上げ救出

20200116_1kokubu_27ja6768

「とやま」さんは離脱

20200116_1kokubu_28yamato

祝賀放水に移ります

20200116_1kokubu_29yamato

一際高く上げています

20200116_1kokubu_30ja6768

放水に洗われる「とやま」さん

20200116_1kokubu_31yamato

色水放水開始 ラインプロポーショナーと言うがやと

20200116_1kokubu_32cl68

「たちかぜ」さんも放水

20200116_1kokubu_33yamato

拍手喝采

20200116_1kokubu_34ja6768

「とやま」さん敬礼で通過

20200116_1kokubu_35cl68

式は終了して、撤収に入ります。

20200116_1kokubu_36cl68

幼稚園児に絶大なる声援を受けていた「たちかぜ」

20200116_1kokubu_37yamato

「やまと」さんも所定の位置へ接岸します。

20200116_1kokubu_38iwasakimisaki

岩崎鼻灯台を眺めながら、国分から撤収します。

ここからは、番外編

帰路の途中、伏木岸壁でタグ「日本海」さんのお仕事を見学。

20200116_2fushiki_51nihonkai

朝、「のりくら」さんの向こうに見えたタンカー「わたつみ」

20200116_2fushiki_50nihonkai

「日本海」さんは、出航の介添えです。

20200116_2fushiki_52ja10ym

JA10YM A109SP 富山県ドクターヘリ

丁度、氷見事案に向かうドクヘリさんが通過

20200116_2fushiki_53watatsumi

いかりを上げながら、後部スラスターを使い離岸します。

20200116_2fushiki_54watatsumi

脱錨

20200116_2fushiki_55nihonkai

「日本海」さんが引いて、右回転で転回

20200116_2fushiki_56watatsumi

わたつみ 宇和海汽船、鉄道・運輸機構 JD2905

20200116_2fushiki_57watatsumi

「日本海」さんのお仕事は、ここまで

20200116_2fushiki_58watatsumi

富山県の生命線を担うタンカー 宇部港へ戻るようです。

20200116_2fushiki_59tsurugi

朝は出航していた「つるぎ」さんで、本日のお船はお終い。

| | コメント (0)

2020/01/14

定点 富山空港 2020/1/14 tue

成人式も終わり、従来ならば暖冬といえど、この辺りで雪が降るものだが・・・

RJNT 140000Z 27003KT 9999 FEW020 SCT060 BKN070 05/03 Q1021

20200114_rjnt_00ja55an

20200114_rjnt_01ja55an

ANA313 RJTT-RJNT JA55AN B737-881

20200114_rjnt_02ja6512

JA6512 AS350B3 AKF ↑

20200114_rjnt_03ja6516

JA6516 AS350B3 AKF ↑

20200114_rjnt_04ja55an

20200114_rjnt_05ja55an

ANA316 RJNT-RJTT JA55AN B737-881

RJNT 140100Z VRB02KT 9999 FEW020 SCT050 BKN060 06/03 Q1022

20200114_rjnt_06ja10ym

JA10YM A109SP 富山県ドクターヘリ 八尾事案

20200114_rjnt_07ja76an

20200114_rjnt_08ja76an

ANA315 RJTT-RJNT JA76AN B737-881

RJNT 140200Z VRB02KT 9999 FEW020 BKN060 08/04 Q1021

20200114_rjnt_09ja6516

JA6516 ↓

20200114_rjnt_10ja6516

JA6516 ↑

20200114_rjnt_11ja76an

20200114_rjnt_12ja76an

ANA1181 RJNT-RJCC JA76AN B737-881

RJNT 140400Z 28003KT 9999 FEW020 BKN050 08/03 Q1019

20200114_rjnt_13ja119w

午後からWさんの訓練

20200114_rjnt_14ja119w

JA119W AW139 富山県消防防災

RJNT 140500Z VRB02KT 9999 FEW020 BKN050 BKN060 08/04 Q1019

20200114_rjnt_15ja6516

JA6516 ↑

所要でCSH825の到着は、撮り逃し

20200114_rjnt_16b5801

20200114_rjnt_17b5801

CSH826 RJNT-ZSPD B-5801 B737-76D

20200114_rjnt_18b5801

次回からJALのコードシェアが始まります。

 

| | コメント (0)

2020/01/13

定点 富山空港 2020/1/11 sat

魚津での海上出初式を終えて、河原に向けて転戦。

RJNT 110100Z 18007KT 9999 FEW040 08/M01 Q1016

20200111_rjnt_00ja82an

ANA315 RJTT-RJNT JA82AN B737-881

20200111_rjnt_01jintsu

偶然、富山市消防局の消防艇「神通」が通過

20200111_rjnt_02b6908

上空待機に入った南方さんが見えてます

20200111_rjnt_03b6908

MEDICインバウンド

RJNT 110200Z 18005KT 110V220 9999 FEW040 10/M01 Q1014

20200111_rjnt_04b6908

CSN613 ZYTL-RJNT B-6908 A320-232

20200111_rjnt_05jcg

新湊沖で捜索中の「やひこ」さんと「たちかぜ」さんが見えます。

RJNT 110300Z 21004KT 150V270 9999 FEW040 12/M03 Q1013

20200111_rjnt_06ja6768

JA6768 B412EP 富山県消防防災

20200111_rjnt_07ja82an

ANA1181 RJNT-RJCC JA82AN B737-881

20200111_rjnt_08ja10ym

JA10YM A109SP 富山県ドクターヘリ ANAの下を南砺事案

20200111_rjnt_09ja82an

Pさんの山見せサービスかな

20200111_rjnt_10b6908

20200111_rjnt_11b6908

CSN614 RJNT-ZYTL B-6908 A320-232

20200111_rjnt_12b6908

20200111_rjnt_13tateyama

それにしても、美し過ぎる立山連峰

20200111_rjnt_14ja6768

給油して外置 まだ出動する予定かな

(15時過ぎに海保のJA970Aと交代して捜索へ)

RJNT 110400Z 18006KT 130V210 9999 FEW040 12/M04 Q1013

20200111_rjnt_15b5269

20200111_rjnt_16b5269

CSH825 ZSPD-RJNT B-5269 B737-76D

20200111_rjnt_17b5269

これは春の陽気

RJNT 110500Z 26010KT 9999 FEW040 BKN060 14/01 Q1012

20200111_rjnt_18b5269

CSH826 RJNT-ZSPD B-5269 B737-76D

20200111_rjnt_19b5269

RJNT 110600Z 28010KT 9999 VCSH FEW030 BKN060 BKN100 12/01 Q1012

20200111_rjnt_20ja10ym

JA10M 帰路、黒部事案のドクヘリさんを

| | コメント (0)

2020/01/12

令和2年富山市消防海上出初式 富山市 2020/1/12 sun

初詣週末の二日目。実はお正月気分も飛び去って、消防さんは実任務に忙しい。

RJNT 112300Z 00000KT 9999 FEW020 BKN150 BKN/// 03/02 Q1012

20200112_iwase_00ja6768

一昨日発生の四方沖の海難事案。今日も早朝から「とやま」さんが、沿岸捜索。

20200112_iwase_01ja6768

日がたって来たので、潮の流れから東部地域の海岸を捜索しています。

20200112_iwase_02jintsu

消防艇の「神通」さんも、同様に捜索中。背後には、沖合の「やひこ」さんらしき船影も。

20200112_iwase_03ja73an

ANA313 RJTT-RJNT JA73AN B737-881

20200112_iwase_04hichou

今朝のお舟は、「飛長」堀内汽船 JD3462 抜錨したので、出初式会場へ

RJNT 120000Z 17004KT 130V220 9999 FEW020 SCT070 BKN150 04/03 Q1012

20200112_iwase_05fdp

富山北消防署和合出張所のラダー

20200112_iwase_06fdp

この時間は市役所前で富山市消防出初式が行われています。

20200112_iwase_07fdp

北署の救助工作車

20200112_iwase_08fdp

今年も会場は、岩瀬漁港。海上分遣所から救助ボート軍団がやってきました。

20200112_iwase_09jintsu

消防艇「神通」は、まだ捜索からの帰路

20200112_iwase_10jintsu

漁港に入るかと思えば、一旦分遣所に寄港。

20200112_iwase_11ja73an

ANA316 RJNT-RJTT JA73AN B737-881

RJNT 120100Z VRB02KT 9999 FEW020 BKN060 BKN080 06/04 Q1012

20200112_iwase_12jintsu

「神通」さんは出初式装束になって、漁港にやって来ました。

20200112_iwase_13ja90an

ANA315 RJTT-RJNT JA90AN B737-8AL

20200112_iwase_14fdp

一同整列して市長待ち

RJNT 120200Z VRB02KT 9999 -SHRA FEW020 SCT060 BKN080 07/05 Q101

20200112_iwase_15jintsu

「神通」さんも所定位置へ

20200112_iwase_16fdp

市長到着して検閲

20200112_iwase_17jintsu

舟艇航進

20200112_iwase_18fdp

救助船、ゴムボート、水上バイクと続きます。海保さんは捜索事案継続で、参加取りやめ。

20200112_iwase_19fdp

救助演技 お、太公望が大物を当てたようです。

20200112_iwase_20fdp

きゃー、白鯨か 水中に引き込まれます。

20200112_iwase_21fdp

消防が到着して、救助索を発射

20200112_iwase_22fdp

水上バイクが颯爽と到着

20200112_iwase_23fdp

撃ち込まれた浮き輪につながった要救助者を引き上げます。

20200112_iwase_24fdp

疾風のように去っていきました。

20200112_iwase_25fdp

次は、水中捜索

20200112_iwase_26b18652

CAL170 RCTP-RJNT B-18652 B737-8Q8

20200112_iwase_27fdp

ダイバーが潜り、水中から引き揚げました。

20200112_iwase_28fdp

ゴムボートがダイバー収容して

20200112_iwase_29fdp

再度、潜行

20200112_iwase_30fdp

無事故祈願で展示終了

20200112_iwase_31jintsu

一斉放水に

20200112_iwase_32jintsu

20200112_iwase_33ja6768

富山県消防防災へり「とやま」もやって来ました。

20200112_iwase_34fdp

カラー放水で盛大に

20200112_iwase_35fdp

でも、今年は短め

20200112_iwase_36fdp

切れが悪いのよ・・・

20200112_iwase_37ja6768

20200112_iwase_38ja6768

トンビさんが監視しています。

20200112_iwase_39ja6768

敬礼

20200112_iwase_40ja6768

20200112_iwase_41ja6768

お手振りして、さようなら。

20200112_iwase_42ja970a

JA970A AW139 JCG

朝の「とやま」さんの後捜索に入っていた海保さんが、空港で給油してから通常パトロールへ

RJNT 120300Z 00000KT 9999 -SHRA FEW020 SCT060 BKN080 08/04 Q1010

20200112_iwase_43ja90an

ANA1181 RJNT-RJCC JA90AN B737-8AL

ほとんど見えない

20200112_iwase_44jintsu

これで終りかと思ったら、「神通」さんは、再度捜索に出航して行きました。

| | コメント (0)

2020/01/11

令和二年魚津消防署海上出初式 魚津市 2020/1/11 sat

令和新年の第二週末。今週も出初式が開催されます。本日は、高岡市が行われていますが、陸からの海難救助にも参加する消防は、水難救済会としての海上出初式が魚津消防署で行われます。

20200111_uozu_00fdp

魚津漁港南地区 富山県東部消防組合の救助艇「雄山丸」

20200111_uozu_01sunouramaru8

北地区には遠洋さんま漁船の第八珠の浦丸が帰ってきてました。

20200111_uozu_02shinminatobg

冬蜃気楼 新湊大橋が下方に逆転して見えてます。

20200111_uozu_03ja70an

ANA313 MEDIC ちっちゃい

20200111_uozu_04fdp

テキパキと訓練準備中

20200111_uozu_05fdp

先週も見た車両

20200111_uozu_06fdp

ポンプと救助工作車

20200111_uozu_07fdp

魚津市長、東部消防組合長がメイン来賓

20200111_uozu_08fdp

訓練開始 整列すすめ

20200111_uozu_09fdp

魚津市長の観閲

20200111_uozu_10fdp

訓練開始 まずは救助索発射銃発射から

20200111_uozu_11fdp

NICE TVさん 地元のケーブルだけど、周りの文弥さんや来賓が取り巻いて見ているところに、銃を構えたとこで、突然乱入。そうかい、一生忘れないからね。

20200111_uozu_12fdp

想定は、漁船が岸壁に衝突して、放り出された4名を救助する。

20200111_uozu_13fdp

沖合で「雄山丸」は待機

20200111_uozu_14fdp

救助要請が入り、救助隊到着

20200111_uozu_15fdp

魚津署救助工作車

20200111_uozu_16fdp

水難会として魚津市消防団大町分団も救助に参加します。

20200111_uozu_17fdp

救助索発射!

20200111_uozu_18fdp

要救助者に届いて、索を引きます

20200111_uozu_19fdp

水難会のゴムボート、雄山丸がそれぞれ一名づつ救助

20200111_uozu_20fdp

一人行方不明 ダイバーが捜索します。

20200111_uozu_21fdp

水中で発見

20200111_uozu_22fdp

救助工作車のクレーンでストレッチャーを引き上げます。

20200111_uozu_23fdp

衝突した漁船は、雄山丸が曳いて収容

20200111_uozu_24fdp

レスキューが撤収して、次の訓練へ

20200111_uozu_25fdp

漁船が火災です。

20200111_uozu_26fdp

魚津署と大町分団のポンプ車が消火準備

20200111_uozu_27fdp

海水を吸い上げて、消火作業

20200111_uozu_28fdp

20200111_uozu_29fdp

船舶火災は、鎮火しました。

20200111_uozu_30fdp

続いて、一斉放水

20200111_uozu_31fdp

途中から色水に

20200111_uozu_32fdp

青空に綺麗に弧を描きます

20200111_uozu_33fdp

放水やめぇ 色水の素は食紅です。

20200111_uozu_34fdp

最後に講評で、訓練終了。約一時間の訓練でした。

 

| | コメント (0)

2020/01/08

定点 富山空港 2020/1/8 wed

春のような暖かい陽気ですが、爆弾低気圧接近で、防風警報も発令されています。

RJNT 080000Z 20006KT 160V230 8000 SHRA FEW010 SCT040 BKN060 12/11 Q1002

20200108_rjnt_00ja78an

ANA313 RJTT-RJNT JA78AN B737-881

RJNT 080031Z 12008G18KT 060V200 9999 -SHRA FEW003 SCT060 BKN150 12/11 Q0999 RMK 1ST003 3SC060 6AC150 A2950 P/FR

20200108_rjnt_01ja78an

前線が通過して、西から晴れ間も

20200108_rjnt_02ja78an

丁度日が差して・・

20200108_rjnt_03ja78an

ANA316 RJNT-RJTT JA78AN B737-881

20200108_rjnt_04ja78an

青空に向かってクライム

RJNT 080100Z VRB03KT 9999 FEW005 SCT080 14/11 Q0999

20200108_rjnt_05ja75an

バックは黒い雲

20200108_rjnt_06ja75an

ANA315 RJTT-RJNT JA75AN B737-881

RJNT 080250Z 28023G34KT 9999 SHRA FEW010 SCT020 BKN030 14/11 Q0998 RMK 1CU010 3CU020 5CU030 A2947

20200108_rjnt_07ja75an

晴れ間は束の間、ラインがかかり風雨が強くなりました。

20200108_rjnt_08ja75an

雨にもめげず、風にもめげず

20200108_rjnt_09ja75an

ANA1181 RJNT-RJCC JA75AN B737-881

中国南方さんは、2時間ぐらいのディレイ

| | コメント (0)

2020/01/06

撮初 富山空港 2020/1/5 sun

新年あけましておめでとうございます。消防出初式からの流れで、本年初めての定点撮影です。

RJNT 050200Z 28005KT 240V320 9999 -SHRA FEW010 SCT030 BKN070 06/01 Q1027

20200105_rjnt_00ja6768

撮初は、富山県消防防災へり「とやま」さん

20200105_rjnt_01b18661

CAL170 RCTP-RJNT B-18661 B737-8AL

20200105_rjnt_02ja88an

ANA1181 RJNT-RJCC JA88AN B737-8AL

RJNT 050300Z VRB03KT 9999 -SHRA FEW010 SCT030 BKN070 07/01 Q1026

20200105_rjnt_03b18661

CAL171 RJNT-RCTP B-18661 B737-8AL

RJNT 050500Z 33003KT 9999 -SHRA FEW015 SCT025 BKN050 05/02 Q1027

20200105_rjnt_04ja6768

14時を回って、この日最後の出初式に参加のため離陸準備

20200105_rjnt_05ja6768

乗り込みぃぃ

20200105_rjnt_06ja6768

JA6768 B412B 富山県消防防災

RJNT 050600Z 25006KT 9999 -SHRA FEW015 BKN040 BKN070 05/01 Q1028

20200105_rjnt_07ja6768

小一時間で帰還

20200105_rjnt_08ja6768

6768ラストイヤー 最後まで活躍を祈ります。

20200105_rjnt_09ja6768

庫中には、新「とやま」君も控えています。

| | コメント (0)

2019/12/25

定点 富山空港 2019/12/25 wed

RJNT 242300Z 20004KT 9999 FEW060 01/M01 Q1025

世はクリスマスで賑やかですが、こんなに穏やかで一日晴天の日がありましょうか・・・

20191225_rjnt_00ja88an

薄く線を引いているのですが、なんやろ

20191225_rjnt_01ja88an

ANA313 RJTT-RJNT JA88AN B737-8AL

RJNT 250000Z 00000KT 9999 FEW060 04/M00 Q1025

20191225_rjnt_02ja88an

20191225_rjnt_03ja88an

ANA316 RJNT-RJTT JA88AN B737-8AL

RJNT 250100Z VRB02KT 9999 FEW060 07/02 Q1025

20191225_rjnt_04ja6516

JA6516 AS350B3 AKF

20191225_rjnt_05ja6502

JA6502 AS350B3 AKF 対空明けかな、塗装が綺麗

RJNT 250200Z VRB02KT 9999 FEW040 09/00 Q102

20191225_rjnt_06b6766

CSN613 ZYTL-RJNT B-6766 A320-232

20191225_rjnt_07ja73an

20191225_rjnt_08ja73an

ANA315 RJTT-RJNT JA73AN B737-881

20191225_rjnt_09tateyama

看板とおりの立山連峰

20191225_rjnt_10hl7619

KAL81 RKSI-KJFK HL7619 A380-861

20191225_rjnt_11ja73an

20191225_rjnt_12ja73an

RJNT 250300Z 29004KT 250V320 9999 FEW040 11/M01 Q1022

20191225_rjnt_13ja73an

ANA1181 RJNT-RJCC JA73AN B737-881

20191225_rjnt_14ja73an

20191225_rjnt_15b6766

20191225_rjnt_16b6766

CSN614 RJNT-ZYTL B-6766 A320-232

20191225_rjnt_17b6766

まるで秋の空

20191225_rjnt_18dazai

ちゃんと拝むがよ 桑原、桑原

RJNT 250400Z 30005KT 230V360 9999 FEW040 13/00 Q1021

20191225_rjnt_19ja119w

今日も午後は新とやま君が訓練へ

20191225_rjnt_20ja119w

JA119W AW139 富山県消防防災

| | コメント (0)

2019/12/14

定点 富山空港 2019/12/13 fri

冬の束の間の青空。穏やかな日差しに、立山も美しく輝いています。

RJNT 122300Z VRB02KT 9999 FEW030 BKN060 03/01 Q1028

20191213_rjnt_00toyamabay

能登半島まで見えていますが、波は高目

20191213_rjnt_01ja51an

ANA313 RJTT-RJNT JA51AN B737-881

RJNT 130000Z 17005KT 110V200 9999 FEW030 BKN060 04/01 Q1028

20191213_rjnt_02ja51an

まだ陽は東より

20191213_rjnt_03ja51an

20191213_rjnt_04ja51an

ANA316 RJNT-RJTT JA51AN B737-881

20191213_rjnt_05ja51an

20191213_rjnt_06ja6502

JA6502 AS350B3 AKF ↓

RJNT 130100Z VRB04KT 9999 FEW030 BKN060 07/M01 Q1028

20191213_rjnt_07ja85an

20191213_rjnt_08ja85an

ANA315 RJTT-RJNT JA85AN B737-881

20191213_rjnt_09ja85an

空港至近は、ラフのようでエンドまで転がります。

RJNT 130200Z 18006KT 140V210 9999 FEW030 BKN060 09/M02 Q1027

20191213_rjnt_10ja10ym

JA10YM A109SP SAK 富山県ドクヘリ

20191213_rjnt_11ja119w

尻尾が気になって、やわやわ

20191213_rjnt_12ja119w

JA119W AW139 富山県消防防災

20191213_rjnt_13c681203

68-1203 KC-2 403SQ

ふと目をやると独特の機影。どうも、ブルー支援だったのかな?

20191213_rjnt_14ja85an

20191213_rjnt_15ja85an

ANA1181 RJNT-RJCC JA85AN B737-881

RJNT 130300Z VRB02KT 9999 FEW030 10/M05 Q1027

20191213_rjnt_16sky

青空キャンパスに飛行機雲 ぐにゅと曲がっているのは、成田セパレーションで迂回された便。

20191213_rjnt_17b18660

20191213_rjnt_18b18660

CAL170 RCTP-RJNT B-18660 B737-8SH

20191213_rjnt_19b18660

ダイナさんも転がり

20191213_rjnt_20ja6512

JA6512 エンジンメンテをしてから、滑走路上で舞踏会

20191213_rjnt_21ja6512

テスト終了でお戻り

RJNT 130400Z VRB03KT 9999 FEW030 SCT/// 10/M04 Q1026

20191213_rjnt_22b18660

20191213_rjnt_23b18660

20191213_rjnt_24b18660

CAL171 RJNT-RCTP B-18660 B737-8SH

20191213_rjnt_25ja6512

6512 ↓

20191213_rjnt_26ja119w

新「とやま」さん、訓練へ始動

20191213_rjnt_27ja119w

もう手順どうり

20191213_rjnt_28ja119w

イロイロな眼

20191213_rjnt_29ja119w

JA119W ↑ 今日は、黒部方面で訓練だったらしい。

 

| | コメント (0)

2019/12/03

定点 富山空港 2019/12/3 tue

久しぶりの定点。冬近しで、一日冷たい雨の日。

RJNT 022300Z 17004KT 120V210 9999 -SHRA FEW010 SCT020 BKN030 07/05 Q1017

20191203_rjnt_00ja79an

ANA313 RJTT-RJNT JA79AN B737-881

RJNT 030000Z VRB02KT 9999 -SHRA FEW010 SCT020 BKN030 07/05 Q1018

20191203_rjnt_01ja79an

20191203_rjnt_02ja79an

ANA316 RJNT-RJTT JA79AN B737-881

RJNT 030100Z 16005KT 090V200 8000 -SHRA FEW010 SCT020 BKN030 07/05 Q1018

20191203_rjnt_03ja89an

羽衣を引いていますが、強くはありません。

20191203_rjnt_04ja89an

右からの横風で、ウイングロー

20191203_rjnt_05ja89an

ANA315 RJTT-RJNT JA89AN B737-8AL

RJNT 030200Z 21008KT 140V320 9000 -SHRA FEW010 SCT020 BKN030 08/04 Q1017

20191203_rjnt_06kouen

公園にはイノシシ出現

20191203_rjnt_07ja89an

雨は、みぞれっぽい

20191203_rjnt_08ja89an

20191203_rjnt_09ja89an

20191203_rjnt_10ja89an

ANA1181 RJNT-RJCC JA89AN B737-8AL

20191203_rjnt_11ja89an

冬空の様で、ところどころに青空スポットも

20191203_rjnt_12xmas

今年も廻るサンタに、屋上にあった立て看が・・

RJNT 030300Z 21009KT 180V250 9999 -SHRA FEW010 SCT025 BKN050 09/05 Q1017

20191203_rjnt_13b5260

20191203_rjnt_14b5260

CSH825 ZSPD-RJNT B-5260 B737-76D

RJNT 030500Z 22009KT 9999 -SHRA FEW005 BKN020 07/05 Q1018

20191203_rjnt_15b5260

20191203_rjnt_16b5260

20191203_rjnt_17b5260

CSH826 RJNT-ZSPD B-5260 B737-76D

20191203_rjnt_18b5260

今年もあと少し。ラストスパート。

| | コメント (0)

より以前の記事一覧

その他のカテゴリー

BI Boading record aircraft Boading record ship FlightTracking lighthouse NAVAIDS RJNT LOG SKY MASSAGE US NAVY USMC うみ おか そら てつ アクシデント エアロック チーム室屋 三沢飛行場 上五島空港 下地島空港 下総飛行場 与那国空港 中標津空港 中部国際空港 久米島空港 五島福江空港 仙台空港 伊江島空港 但馬空港 佐賀空港 入間飛行場 八尾空港 八戸飛行場 出雲空港 函館空港 利尻空港 北九州空港 十勝飛行場 千歳飛行場 博物館 厚木飛行場 名古屋飛行場 喜界空港 嘉手納飛行場 場外 壱岐空港 大分空港 大湊飛行場 大阪国際空港 大館能代空港 天草空港 奄美空港 奥尻空港 宇部山口空港 宇都宮飛行場 宮古空港 宮崎空港 富山空港 小松島飛行場 小松飛行場 屋久島空港 山形空港 岐阜飛行場 岡山空港 岩国飛行場 帯広空港 広島空港 庄内空港 徳之島空港 徳島飛行場 成田国際空港 新潟空港 新田原飛行場 旭川空港 旭川飛行場 明野飛行場 普天間飛行場 木更津飛行場 札幌飛行場 東京国際空港 松山空港 松島飛行場 松本空港 横田飛行場 沖永良部空港 波照間空港 浜松飛行場 海上保安庁 海上自衛隊 海外 熊本空港 百里飛行場 相馬原飛行場 石垣空港 石見空港 礼文空港 神戸空港 福井空港 福岡空港 福島空港 秋田空港 種子島空港 空撮 立川飛行場 築城飛行場 美保飛行場 能登空港 舞鶴飛行場 航空自衛隊 芦屋飛行場 花巻空港 調布飛行場 警務消防 那覇空港 釧路空港 長崎空港 関西国際空港 陸上自衛隊 隠岐空港 霞ヶ浦飛行場 霞目飛行場 青森空港 静岡空港 静浜飛行場 飛行場跡 飛行船 鹿児島空港 鹿屋飛行場